Time;durP1;ratioP1;P1;durP2;ratioP2;P2;SDS_P1;SDS_P2;PMS_P1;PMS_P2;Temp;Humidity;BMP_temperature;BMP_pressure;BME280_temperature;BME280_humidity;BME280_pressure;Samples;Min_cycle;Max_cycle;Signal;HPM_P1;HPM_P2
2022/05/30 00:01:17;;;;;;;3.85;2.40;;;;;;;15.97;50.31;99310.88;1781846;80;21236;-42
2022/05/30 00:03:44;;;;;;;4.55;2.83;;;;;;;15.96;50.43;99302.47;1782284;80;21471;-42
2022/05/30 00:06:14;;;;;;;4.70;2.80;;;;;;;15.94;50.54;99303.44;1781924;80;21330;-42
2022/05/30 00:08:41;;;;;;;4.50;2.52;;;;;;;15.91;50.81;99308.34;1781991;80;21448;-42
2022/05/30 00:11:12;;;;;;;5.67;2.70;;;;;;;15.89;51.01;99312.05;1781817;80;20941;-42
2022/05/30 00:13:39;;;;;;;3.70;2.33;;;;;;;15.91;51.21;99303.46;1782217;80;21187;-41
2022/05/30 00:16:12;;;;;;;5.00;2.50;;;;;;;15.88;51.57;99292.72;1781578;80;20984;-42
2022/05/30 00:18:41;;;;;;;3.42;2.72;;;;;;;15.94;51.60;99293.88;1781871;80;21522;-42
2022/05/30 00:21:08;;;;;;;4.40;2.90;;;;;;;15.93;51.95;99295.04;1781706;80;20984;-42
2022/05/30 00:23:35;;;;;;;4.87;2.70;;;;;;;15.90;52.03;99295.84;1774884;80;21069;-42
2022/05/30 00:26:06;;;;;;;5.62;2.67;;;;;;;15.89;52.49;99298.38;1773547;80;21305;-42
2022/05/30 00:28:34;;;;;;;4.53;2.60;;;;;;;15.88;52.61;99305.02;1773870;80;20954;-42
2022/05/30 00:31:01;;;;;;;4.83;2.85;;;;;;;15.87;52.74;99300.75;1773516;80;21065;-41
2022/05/30 00:33:28;;;;;;;4.08;3.00;;;;;;;15.86;53.14;99287.47;1773460;80;21401;-42
2022/05/30 00:35:56;;;;;;;4.83;2.65;;;;;;;15.85;53.28;99292.15;1773627;80;21033;-42
2022/05/30 00:38:22;;;;;;;5.17;2.40;;;;;;;15.84;53.70;99276.14;1773692;80;21228;-41
2022/05/30 00:40:49;;;;;;;5.08;3.00;;;;;;;15.81;54.03;99270.89;1773579;80;21016;-41
2022/05/30 00:43:30;;;;;;;5.90;3.05;;;;;;;15.79;54.29;99257.41;1773710;80;20996;-41
2022/05/30 00:45:59;;;;;;;4.65;2.75;;;;;;;15.74;54.62;99249.03;1773746;80;21589;-41
2022/05/30 00:48:37;;;;;;;4.40;2.77;;;;;;;15.71;54.97;99234.80;1773822;80;21037;-41
2022/05/30 00:51:07;;;;;;;4.28;2.87;;;;;;;15.69;55.13;99220.74;1773526;80;23142;-42
2022/05/30 00:53:34;;;;;;;5.62;2.83;;;;;;;15.65;55.46;99217.25;1773653;80;21559;-41
2022/05/30 00:56:02;;;;;;;4.67;2.75;;;;;;;15.60;55.59;99214.92;1773469;80;20995;-41
2022/05/30 00:58:32;;;;;;;3.95;2.87;;;;;;;15.58;55.83;99222.17;1773267;80;21064;-41
2022/05/30 01:00:58;;;;;;;3.90;2.25;;;;;;;15.57;56.06;99226.66;1751876;80;21025;-41
2022/05/30 01:08:56;;;;;;;4.78;3.02;;;;;;;15.50;56.82;99213.76;1773512;80;20972;-41
2022/05/30 01:11:23;;;;;;;5.08;2.55;;;;;;;15.45;56.92;99214.17;1773608;80;20961;-41
2022/05/30 01:13:50;;;;;;;5.20;2.40;;;;;;;15.42;57.12;99206.77;1773601;80;21033;-41
2022/05/30 01:16:17;;;;;;;5.05;2.45;;;;;;;15.41;57.28;99204.42;1773781;80;21924;-41
2022/05/30 01:18:49;;;;;;;4.35;2.95;;;;;;;15.37;57.56;99185.32;1751851;80;21024;-41
2022/05/30 01:21:39;;;;;;;4.92;2.72;;;;;;;15.33;57.77;99183.19;1773717;80;21016;-41
2022/05/30 01:24:30;;;;;;;9.13;3.30;;;;;;;15.28;58.07;99180.87;1773466;80;21519;-41
2022/05/30 01:27:20;;;;;;;7.20;2.60;;;;;;;15.26;58.19;99189.25;1706515;84;21101;-41
2022/05/30 01:29:57;;;;;;;6.15;3.15;;;;;;;15.20;58.42;99184.19;1755154;80;23198;-41
2022/05/30 01:32:24;;;;;;;6.78;2.70;;;;;;;15.16;58.50;99177.96;1751686;80;20996;-41
2022/05/30 01:34:51;;;;;;;9.15;3.10;;;;;;;15.14;58.71;99177.59;1773782;80;21531;-41
2022/05/30 01:37:20;;;;;;;5.28;2.72;;;;;;;15.12;58.92;99174.47;1774053;80;20969;-41
2022/05/30 01:39:48;;;;;;;5.20;2.85;;;;;;;15.09;59.06;99180.72;1768808;80;21492;-41
2022/05/30 01:42:16;;;;;;;3.95;2.65;;;;;;;15.07;59.11;99178.96;1773859;80;21238;-41
2022/05/30 01:44:43;;;;;;;4.20;2.90;;;;;;;15.07;59.25;99185.01;1773794;80;21022;-41
2022/05/30 01:47:11;;;;;;;5.20;2.60;;;;;;;15.07;59.37;99193.20;1773961;80;21041;-41
2022/05/30 01:49:38;;;;;;;3.85;2.40;;;;;;;15.08;59.42;99195.55;1774084;80;21084;-41
2022/05/30 01:52:06;;;;;;;5.85;2.70;;;;;;;15.11;59.53;99189.28;1773766;80;21041;-41
2022/05/30 01:54:33;;;;;;;4.60;2.80;;;;;;;15.15;59.66;99175.64;1773612;80;21156;-41
2022/05/30 01:57:08;;;;;;;3.90;2.70;;;;;;;15.12;59.75;99164.91;1770558;80;21535;-41
2022/05/30 01:59:36;;;;;;;8.03;2.90;;;;;;;15.08;60.13;99156.53;1772793;80;20997;-41
2022/05/30 02:02:22;;;;;;;3.72;2.55;;;;;;;15.06;60.31;99164.33;1773538;80;21511;-41
2022/05/30 02:04:52;;;;;;;6.17;2.75;;;;;;;15.02;60.49;99170.39;1773723;80;20934;-41
2022/05/30 02:07:18;;;;;;;4.05;2.60;;;;;;;14.99;60.67;99156.95;1773843;80;21272;-41
2022/05/30 02:09:46;;;;;;;5.45;2.80;;;;;;;14.96;60.73;99146.80;1751738;80;20934;-41
2022/05/30 02:12:13;;;;;;;4.87;2.90;;;;;;;14.94;61.07;99145.66;1773798;80;21515;-41
2022/05/30 02:14:43;;;;;;;4.95;2.75;;;;;;;14.97;61.15;99141.55;1772091;80;21508;-41
2022/05/30 02:17:11;;;;;;;6.05;2.60;;;;;;;14.97;61.21;99144.86;1773657;80;21040;-41
2022/05/30 02:19:41;;;;;;;6.55;2.80;;;;;;;14.98;61.24;99147.20;1773991;80;21191;-41
2022/05/30 02:22:12;;;;;;;6.05;2.95;;;;;;;14.99;61.49;99154.22;1773553;80;20942;-41
2022/05/30 02:24:39;;;;;;;5.03;2.83;;;;;;;14.99;61.49;99152.08;1773780;80;20890;-41
2022/05/30 02:27:09;;;;;;;4.50;2.50;;;;;;;14.97;61.73;99158.50;1773574;80;21028;-41
2022/05/30 02:29:38;;;;;;;5.03;2.90;;;;;;;14.97;61.94;99158.50;1774023;80;20990;-41
2022/05/30 02:32:07;;;;;;;5.00;2.80;;;;;;;15.02;61.96;99155.37;1773579;80;21543;-41
2022/05/30 02:37:20;;;;;;;4.20;3.00;;;;;;;15.07;62.26;99172.14;1773652;80;21020;-41
2022/05/30 02:39:47;;;;;;;7.20;3.02;;;;;;;15.06;62.50;99177.98;1773811;80;21021;-41
2022/05/30 02:42:16;;;;;;;6.58;3.15;;;;;;;15.08;62.58;99175.65;1756245;80;21025;-41
2022/05/30 02:44:44;;;;;;;8.70;3.00;;;;;;;15.08;62.73;99179.16;1773598;80;22005;-41
2022/05/30 02:47:11;;;;;;;5.28;2.77;;;;;;;15.09;62.87;99184.82;1773561;80;20970;-41
2022/05/30 02:49:40;;;;;;;6.72;2.90;;;;;;;15.14;62.93;99191.25;1773542;80;21017;-41
2022/05/30 02:52:07;;;;;;;6.87;2.75;;;;;;;15.15;63.03;99172.30;1773815;80;21475;-41
2022/05/30 02:54:35;;;;;;;6.20;2.70;;;;;;;15.15;63.08;99176.40;1773905;80;21084;-41
2022/05/30 02:57:13;;;;;;;5.70;2.90;;;;;;;15.18;63.19;99176.99;1773213;80;23188;-41
2022/05/30 02:59:43;;;;;;;4.92;2.70;;;;;;;15.19;63.30;99185.39;1773860;80;20965;-41
2022/05/30 03:02:09;;;;;;;5.05;2.90;;;;;;;15.22;63.29;99198.23;1774165;80;21045;-41
2022/05/30 03:04:37;;;;;;;4.55;2.40;;;;;;;15.29;63.42;99204.28;1773832;80;21540;-41
2022/05/30 03:07:05;;;;;;;4.92;2.75;;;;;;;15.33;63.44;99208.36;1773728;80;21028;-41
2022/05/30 03:09:32;;;;;;;9.18;3.02;;;;;;;15.36;63.53;99212.44;1773598;80;21132;-41
2022/05/30 03:12:18;;;;;;;4.25;2.80;;;;;;;15.37;63.68;99213.22;1772923;80;20996;-41
2022/05/30 03:14:45;;;;;;;5.30;2.92;;;;;;;15.36;64.04;99213.80;1773587;80;20954;-41
2022/05/30 03:17:13;;;;;;;5.12;3.00;;;;;;;15.37;64.27;99207.76;1773595;80;21006;-41
2022/05/30 03:19:42;;;;;;;8.33;2.80;;;;;;;15.41;64.42;99188.81;1773389;80;21025;-41
2022/05/30 03:22:08;;;;;;;5.78;3.22;;;;;;;15.45;64.49;99192.31;1773605;80;21826;-41
2022/05/30 03:24:37;;;;;;;4.05;2.70;;;;;;;15.47;64.69;99183.14;1770581;80;20934;-41
2022/05/30 03:27:04;;;;;;;5.30;3.12;;;;;;;15.49;64.87;99185.48;1773586;80;21459;-41
2022/05/30 03:29:32;;;;;;;5.92;2.83;;;;;;;15.49;64.90;99184.13;1751665;80;21102;-41
2022/05/30 03:31:59;;;;;;;4.42;3.00;;;;;;;15.50;65.06;99171.41;1773724;80;21527;-41
2022/05/30 03:34:28;;;;;;;4.95;3.20;;;;;;;15.59;65.21;99166.91;1773599;80;21531;-41
2022/05/30 03:36:56;;;;;;;5.20;3.37;;;;;;;15.59;65.31;99166.33;1773352;80;21025;-41
2022/05/30 03:39:26;;;;;;;4.78;3.20;;;;;;;15.58;65.43;99161.28;1769246;80;21052;-41
2022/05/30 03:42:13;;;;;;;5.92;3.05;;;;;;;15.58;65.56;99161.28;1773585;80;21049;-41
2022/05/30 03:44:44;;;;;;;5.08;3.30;;;;;;;15.59;65.72;99156.77;1757558;80;21109;-41
2022/05/30 03:47:11;;;;;;;4.83;3.65;;;;;;;15.62;65.53;99138.80;1773593;80;21783;-41
2022/05/30 03:49:39;;;;;;;4.67;3.35;;;;;;;15.61;65.54;99133.14;1773361;80;21055;-41
2022/05/30 03:52:07;;;;;;;6.83;3.55;;;;;;;15.60;65.55;99143.88;1773574;80;21012;-41
2022/05/30 03:54:34;;;;;;;3.98;3.22;;;;;;;15.60;65.42;99132.95;1773901;80;21029;-41
2022/05/30 03:57:01;;;;;;;4.42;2.72;;;;;;;15.59;65.41;99125.34;1773531;80;21041;-41
2022/05/30 03:59:28;;;;;;;4.50;2.60;;;;;;;15.60;65.20;99125.53;1773563;80;21133;-41
2022/05/30 04:01:56;;;;;;;4.03;2.47;;;;;;;15.65;65.10;99135.27;1773510;80;20984;-41
2022/05/30 04:04:23;;;;;;;6.10;2.80;;;;;;;15.62;65.01;99134.70;1773872;80;21574;-41
2022/05/30 04:06:51;;;;;;;3.80;2.40;;;;;;;15.60;65.03;99134.31;1773617;80;21021;-41
2022/05/30 04:09:18;;;;;;;4.17;2.80;;;;;;;15.59;64.96;99128.06;1773851;80;21538;-41
2022/05/30 04:12:06;;;;;;;3.55;2.15;;;;;;;15.61;64.92;99129.83;1773750;80;21248;-41
2022/05/30 04:14:54;;;;;;;2.90;2.40;;;;;;;15.64;64.76;99130.97;1773669;80;20973;-41
2022/05/30 04:17:23;;;;;;;2.75;2.10;;;;;;;15.63;64.73;99145.84;1773805;80;21024;-41
2022/05/30 04:19:51;;;;;;;6.42;2.15;;;;;;;15.61;64.64;99145.44;1773837;80;21546;-41
2022/05/30 04:22:19;;;;;;;2.72;2.17;;;;;;;15.59;64.57;99152.66;1773558;80;21534;-41
2022/05/30 04:24:47;;;;;;;3.65;2.00;;;;;;;15.56;64.72;99153.47;1771100;80;21256;-41
2022/05/30 04:27:15;;;;;;;4.05;2.22;;;;;;;15.56;64.76;99152.69;1781763;80;21003;-41
2022/05/30 04:29:41;;;;;;;3.52;2.25;;;;;;;15.59;65.21;99164.17;1781633;80;21024;-41
2022/05/30 04:32:23;;;;;;;5.53;2.10;;;;;;;15.58;65.37;99166.74;1780549;80;21029;-41
2022/05/30 04:34:49;;;;;;;2.90;2.12;;;;;;;15.55;65.60;99175.72;1781704;80;21061;-42
2022/05/30 04:37:16;;;;;;;5.75;2.12;;;;;;;15.53;65.71;99184.33;1781622;80;23133;-41
2022/05/30 04:39:45;;;;;;;3.85;2.27;;;;;;;15.54;65.76;99201.50;1781556;80;21563;-41
2022/05/30 04:42:18;;;;;;;5.05;2.80;;;;;;;15.57;65.89;99213.00;1781754;80;20980;-41
2022/05/30 04:44:53;;;;;;;3.87;2.55;;;;;;;15.56;66.27;99222.36;1777243;80;20902;-41
2022/05/30 04:47:26;;;;;;;3.35;2.60;;;;;;;15.53;66.67;99225.90;1781775;80;21064;-41
2022/05/30 04:49:53;;;;;;;6.05;2.80;;;;;;;15.48;67.07;99223.54;1781749;80;21223;-41
2022/05/30 04:52:20;;;;;;;4.15;2.47;;;;;;;15.45;67.47;99231.92;1781901;80;21007;-41
2022/05/30 04:54:48;;;;;;;5.05;2.90;;;;;;;15.45;67.81;99248.31;1781760;80;21086;-41
2022/05/30 04:57:26;;;;;;;4.47;2.83;;;;;;;15.46;68.05;99244.41;1780042;80;21080;-41
2022/05/30 05:00:07;;;;;;;4.10;2.80;;;;;;;15.41;68.53;99238.57;1779686;80;21463;-41
2022/05/30 05:02:35;;;;;;;5.97;2.80;;;;;;;15.37;68.79;99243.27;1751586;80;21004;-41
2022/05/30 05:05:04;;;;;;;4.28;2.80;;;;;;;15.32;68.98;99257.33;1781809;80;21545;-41
2022/05/30 05:07:45;;;;;;;5.28;2.65;;;;;;;15.30;69.28;99265.15;1781419;80;21000;-41
2022/05/30 05:10:39;;;;;;;3.45;2.92;;;;;;;15.31;69.58;99279.77;1753164;80;21013;-41
2022/05/30 05:13:08;;;;;;;3.50;3.00;;;;;;;15.25;69.91;99291.49;1738279;80;21083;-41
2022/05/30 05:15:45;;;;;;;5.28;3.00;;;;;;;15.19;70.17;99304.77;1777523;80;21142;-41
2022/05/30 05:18:14;;;;;;;6.00;2.80;;;;;;;15.13;70.41;99302.22;1780037;80;20969;-41
2022/05/30 05:20:42;;;;;;;6.10;3.02;;;;;;;15.13;70.60;99333.04;1782266;80;21596;-41
2022/05/30 05:23:11;;;;;;;4.40;2.83;;;;;;;15.17;70.83;99358.97;1781879;80;21668;-41
2022/05/30 05:25:53;;;;;;;4.75;2.90;;;;;;;15.13;71.25;99361.71;1780807;80;21606;-41
2022/05/30 05:28:23;;;;;;;5.50;2.70;;;;;;;15.03;71.71;99348.83;1780902;80;22092;-41
2022/05/30 05:30:50;;;;;;;6.08;2.90;;;;;;;15.04;72.13;99314.91;1782066;80;20957;-41
2022/05/30 05:33:18;;;;;;;3.95;2.30;;;;;;;15.09;72.39;99288.58;1782132;80;21488;-41
2022/05/30 05:35:45;;;;;;;3.85;2.98;;;;;;;15.16;72.62;99281.73;1781963;80;20961;-41
2022/05/30 05:38:13;;;;;;;4.03;3.12;;;;;;;15.25;72.89;99275.11;1782011;80;21033;-41
2022/05/30 05:40:43;;;;;;;7.12;3.00;;;;;;;15.32;72.90;99261.42;1776410;80;26831;-41
2022/05/30 05:43:12;;;;;;;6.40;3.02;;;;;;;15.36;72.98;99266.29;1782082;80;20953;-41
2022/05/30 05:45:41;;;;;;;4.33;3.00;;;;;;;15.38;73.10;99265.33;1781931;80;21551;-41
2022/05/30 05:48:10;;;;;;;3.98;2.72;;;;;;;15.41;73.09;99259.84;1781873;80;21025;-41
2022/05/30 05:50:39;;;;;;;6.08;3.37;;;;;;;15.40;73.03;99286.18;1781936;80;20977;-41
2022/05/30 05:53:07;;;;;;;7.90;3.42;;;;;;;15.35;73.24;99281.11;1751074;80;21222;-41
2022/05/30 05:55:35;;;;;;;4.28;2.87;;;;;;;15.31;73.45;99282.49;1752667;80;20977;-41
2022/05/30 05:58:02;;;;;;;4.70;2.55;;;;;;;15.28;73.35;99269.63;1750837;81;21037;-41
2022/05/30 06:00:31;;;;;;;5.30;2.70;;;;;;;15.28;73.66;99277.05;1750998;82;20973;-41
2022/05/30 06:02:58;;;;;;;6.17;3.20;;;;;;;15.31;73.70;99266.11;1751049;82;21005;-41
2022/05/30 06:05:26;;;;;;;5.35;3.00;;;;;;;15.30;73.80;99248.77;1749387;82;21133;-41
2022/05/30 06:08:03;;;;;;;5.83;3.52;;;;;;;15.23;74.00;99239.41;1740247;82;21076;-41
2022/05/30 06:11:05;;;;;;;5.25;3.25;;;;;;;15.14;74.51;99236.30;1720562;82;21621;-41
2022/05/30 06:13:08;;;;;;;8.30;3.90;;;;;;;15.06;75.03;99227.91;1746175;82;21550;-41
2022/05/30 06:15:35;;;;;;;7.47;3.70;;;;;;;14.99;75.46;99225.20;1698158;82;21017;-41
2022/05/30 06:18:05;;;;;;;;;;;;;;;14.94;75.83;99209.80;1752713;82;20973;-41
2022/05/30 06:20:32;;;;;;;5.15;3.80;;;;;;;14.88;76.18;99213.50;1751101;82;20087;-41
2022/05/30 06:22:59;;;;;;;8.03;4.42;;;;;;;14.76;76.65;99194.20;1751365;82;21101;-41
2022/05/30 06:25:43;;;;;;;5.53;4.15;;;;;;;14.75;77.17;99189.16;1748179;81;21064;-41
2022/05/30 06:28:14;;;;;;;6.28;3.90;;;;;;;14.69;77.71;99167.52;1726935;81;21307;-41
2022/05/30 06:30:43;;;;;;;10.93;4.30;;;;;;;14.65;78.03;99155.25;1750641;81;21305;-41
2022/05/30 06:33:10;;;;;;;6.22;4.40;;;;;;;14.64;78.06;99138.68;1753091;81;21567;-41
2022/05/30 06:35:45;;;;;;;4.75;3.90;;;;;;;14.57;78.53;99146.86;1751394;81;20968;-41
2022/05/30 06:38:13;;;;;;;6.00;4.22;;;;;;;14.53;78.73;99137.12;1753152;81;21559;-41
2022/05/30 06:40:42;;;;;;;5.47;4.20;;;;;;;14.48;79.00;99142.38;1753084;81;21084;-41
2022/05/30 06:43:12;;;;;;;7.15;4.20;;;;;;;14.48;79.11;99141.60;1751682;81;21130;-41
2022/05/30 06:45:45;;;;;;;6.85;4.00;;;;;;;14.44;79.34;99123.88;1688332;81;21528;-41
2022/05/30 06:48:21;;;;;;;8.43;4.85;;;;;;;14.43;79.36;99109.27;1698313;81;21635;-41
2022/05/30 06:50:55;;;;;;;7.17;4.33;;;;;;;14.38;79.54;99108.32;1733321;81;21041;-41
2022/05/30 06:53:22;;;;;;;5.58;4.20;;;;;;;14.38;79.88;99082.41;1753013;81;21088;-41
2022/05/30 06:55:51;;;;;;;5.03;4.05;;;;;;;14.38;80.23;99056.50;1723322;81;21141;-41
2022/05/30 06:58:20;;;;;;;5.25;4.10;;;;;;;14.38;80.70;99055.14;1752924;81;21534;-41
2022/05/30 07:00:48;;;;;;;8.10;4.58;;;;;;;14.44;80.65;99061.73;1752927;81;21032;-41
2022/05/30 07:03:34;;;;;;;6.65;4.30;;;;;;;14.49;81.07;99054.52;1752987;81;21535;-41
2022/05/30 07:06:25;;;;;;;6.55;4.53;;;;;;;14.51;81.39;99061.16;1753102;81;21001;-41
2022/05/30 07:09:02;;;;;;;7.60;4.62;;;;;;;14.58;81.25;99074.77;1752899;81;21137;-41
2022/05/30 07:11:43;;;;;;;5.58;4.67;;;;;;;14.57;81.60;99058.20;1751825;81;21488;-41
2022/05/30 07:14:13;;;;;;;7.03;3.87;;;;;;;14.58;81.71;99058.98;1752970;81;21064;-41
2022/05/30 07:16:43;;;;;;;7.33;4.07;;;;;;;14.57;81.36;99065.63;1753269;81;21052;-41
2022/05/30 07:19:10;;;;;;;4.40;3.75;;;;;;;14.55;81.27;99065.23;1752966;81;21056;-41
2022/05/30 07:21:44;;;;;;;6.05;4.40;;;;;;;14.54;81.28;99070.48;1751004;81;23183;-41
2022/05/30 07:24:29;;;;;;;5.25;4.60;;;;;;;14.56;81.68;99064.06;1752532;81;21040;-41
2022/05/30 07:27:15;;;;;;;8.30;4.53;;;;;;;14.58;81.41;99064.44;1751257;82;21096;-41
2022/05/30 07:30:02;;;;;;;7.10;4.15;;;;;;;14.57;81.70;99060.92;1751111;82;21563;-41
2022/05/30 07:32:47;;;;;;;5.45;4.37;;;;;;;14.59;81.96;99067.36;1751129;82;21048;-41
2022/05/30 07:35:33;;;;;;;4.87;3.90;;;;;;;14.60;81.60;99061.52;1751195;82;21138;-41
2022/05/30 07:38:18;;;;;;;9.18;4.12;;;;;;;14.62;81.96;99062.50;1751264;82;20981;-41
2022/05/30 07:40:47;;;;;;;8.55;4.10;;;;;;;14.62;81.71;99066.59;1747163;82;21036;-41
2022/05/30 07:43:18;;;;;;;6.30;4.17;;;;;;;14.66;81.55;99068.14;1747800;82;20989;-41
2022/05/30 07:45:50;;;;;;;8.35;4.40;;;;;;;14.67;81.39;99060.70;1749238;82;20965;-41
2022/05/30 07:48:31;;;;;;;9.75;4.25;;;;;;;14.67;81.28;99070.25;1678056;82;21153;-41
2022/05/30 07:51:01;;;;;;;7.53;4.30;;;;;;;14.68;81.43;99080.00;1733204;82;21040;-41
2022/05/30 07:53:39;;;;;;;8.85;4.08;;;;;;;14.69;81.43;99072.80;1750280;82;21004;-41
2022/05/30 07:56:11;;;;;;;7.92;4.28;;;;;;;14.70;81.59;99069.48;1749815;82;21041;-41
2022/05/30 07:58:38;;;;;;;7.05;4.60;;;;;;;14.76;81.48;99072.02;1751431;81;21455;-41
2022/05/30 08:01:06;;;;;;;8.88;4.03;;;;;;;14.78;81.45;99069.07;1751027;82;21243;-41
2022/05/30 08:03:34;;;;;;;7.53;4.03;;;;;;;14.82;81.36;99062.23;1751132;82;21032;-41
2022/05/30 08:06:05;;;;;;;;;;;;;;;14.87;81.11;99067.28;1751247;82;21543;-41
2022/05/30 08:08:51;;;;;;;9.65;4.35;;;;;;;14.90;81.01;99058.91;1750977;82;20163;-41
2022/05/30 08:11:21;;;;;;;9.50;3.92;;;;;;;14.87;81.36;99064.55;1750942;82;21534;-41
2022/05/30 08:13:50;;;;;;;6.00;3.98;;;;;;;14.94;81.17;99075.46;1750935;82;22030;-41
2022/05/30 08:16:21;;;;;;;8.13;4.22;;;;;;;15.03;80.74;99078.55;1751121;82;21012;-42
2022/05/30 08:18:48;;;;;;;6.50;3.77;;;;;;;15.10;80.76;99068.95;1751376;82;21041;-41
2022/05/30 08:21:16;;;;;;;7.08;3.60;;;;;;;15.21;80.91;99068.91;1751129;82;21575;-41
2022/05/30 08:23:43;;;;;;;5.72;3.80;;;;;;;15.34;81.17;99065.16;1751052;82;21088;-41
2022/05/30 08:26:13;;;;;;;7.00;4.00;;;;;;;15.43;80.55;99073.70;1748752;82;21140;-42
2022/05/30 08:28:41;;;;;;;7.80;3.55;;;;;;;15.49;80.28;99069.38;1740738;82;20969;-41
2022/05/30 08:31:09;;;;;;;5.37;3.20;;;;;;;15.54;79.41;99074.45;1748493;81;21327;-41
2022/05/30 08:33:46;;;;;;;5.03;3.37;;;;;;;15.57;78.95;99084.57;1744408;82;21011;-41
2022/05/30 08:36:31;;;;;;;5.95;3.77;;;;;;;15.60;78.69;99089.23;1748631;82;21096;-41
2022/05/30 08:42:54;;;;;;;6.10;3.92;;;;;;;15.59;78.19;99084.94;1738659;82;21030;-41
2022/05/30 08:45:25;;;;;;;7.12;3.75;;;;;;;15.62;78.00;99095.09;1720442;82;21742;-41
2022/05/30 08:48:00;;;;;;;7.53;3.50;;;;;;;15.61;77.92;99084.74;1738423;82;20934;-41
2022/05/30 08:50:50;;;;;;;6.05;3.62;;;;;;;15.65;78.23;99086.08;1738590;82;21013;-41
2022/05/30 08:53:42;;;;;;;4.85;3.67;;;;;;;15.74;78.16;99091.09;1737996;82;21013;-41
2022/05/30 08:56:26;;;;;;;7.53;4.03;;;;;;;15.80;78.06;99093.59;1738951;82;21013;-41
2022/05/30 08:59:54;;;;;;;6.95;4.03;;;;;;;15.87;77.60;99105.28;1738608;82;21220;-41
2022/05/30 09:02:30;;;;;;;8.60;4.40;;;;;;;15.94;77.38;99086.08;1733077;82;27308;-41
2022/05/30 09:05:12;;;;;;;9.28;4.40;;;;;;;16.01;77.05;99078.42;1722033;82;20994;-41
2022/05/30 09:07:46;;;;;;;9.25;3.77;;;;;;;16.08;77.03;99070.94;1738047;82;20907;-41
2022/05/30 09:10:34;;;;;;;6.87;4.72;;;;;;;16.23;76.86;99073.55;1737455;82;21094;-41
2022/05/30 09:13:37;;;;;;;7.17;4.03;;;;;;;16.35;76.44;99073.06;1738823;82;21473;-41
2022/05/30 09:16:37;;;;;;;8.78;4.37;;;;;;;16.44;76.15;99078.84;1738150;82;21005;-41
2022/05/30 09:19:09;;;;;;;8.70;4.33;;;;;;;16.62;76.27;99079.47;1738548;82;20923;-41
2022/05/30 09:21:35;;;;;;;10.10;4.90;;;;;;;16.80;75.76;99076.53;1720489;82;21029;-41
2022/05/30 09:24:04;;;;;;;8.10;4.87;;;;;;;16.96;75.30;99083.61;1738506;82;21081;-41
2022/05/30 09:26:35;;;;;;;8.78;4.55;;;;;;;17.11;74.62;99076.78;1738543;82;21074;-41
2022/05/30 09:29:21;;;;;;;8.53;5.08;;;;;;;17.29;73.92;99076.55;1730408;82;21474;-41
2022/05/30 09:32:30;;;;;;;6.87;5.30;;;;;;;17.43;73.24;99081.09;1738522;82;21532;-41
2022/05/30 09:35:29;;;;;;;9.20;5.37;;;;;;;17.52;72.98;99073.91;1738603;82;21010;-41
2022/05/30 09:38:21;;;;;;;10.15;5.33;;;;;;;17.61;72.68;99075.58;1736992;81;21046;-41
2022/05/30 09:40:55;;;;;;;9.05;5.55;;;;;;;17.70;72.27;99073.09;1728023;83;21056;-41
2022/05/30 09:43:49;;;;;;;10.53;5.45;;;;;;;17.80;72.14;99080.39;1727439;82;20931;-41
2022/05/30 09:46:25;;;;;;;9.48;5.08;;;;;;;17.94;71.58;99069.80;1728184;83;20998;-41
2022/05/30 09:49:23;;;;;;;8.03;5.83;;;;;;;18.12;71.07;99062.64;1728106;83;21544;-41
2022/05/30 09:51:56;;;;;;;8.63;5.22;;;;;;;18.37;70.27;99058.89;1727485;83;21047;-42
2022/05/30 09:54:29;;;;;;;8.25;5.10;;;;;;;18.55;69.85;99056.63;1706760;83;21148;-42
2022/05/30 09:57:14;;;;;;;8.38;5.05;;;;;;;18.74;69.22;99057.06;1727458;82;21017;-41
2022/05/30 09:59:49;;;;;;;9.18;4.65;;;;;;;18.92;68.62;99056.92;1724896;82;20971;-42
2022/05/30 10:02:36;;;;;;;9.60;5.12;;;;;;;19.24;67.51;99049.98;1727477;83;21074;-41
2022/05/30 10:05:23;;;;;;;7.35;5.33;;;;;;;19.51;68.09;99052.75;1727831;83;21034;-41
2022/05/30 10:07:54;;;;;;;8.83;5.05;;;;;;;19.77;65.09;99044.71;1727600;83;21106;-41
2022/05/30 10:10:40;;;;;;;8.90;4.78;;;;;;;19.90;64.62;99038.09;1710838;82;21568;-41
2022/05/30 10:13:10;;;;;;;7.78;5.12;;;;;;;20.01;64.39;99030.97;1727632;83;21018;-41
2022/05/30 10:15:57;;;;;;;12.73;5.22;;;;;;;20.14;63.70;99042.07;1727861;83;21485;-41
2022/05/30 10:18:28;;;;;;;7.60;5.03;;;;;;;20.19;63.20;99046.42;1727838;83;21014;-42
2022/05/30 10:21:27;;;;;;;6.53;4.72;;;;;;;20.23;63.61;99033.37;1727609;83;21174;-42
2022/05/30 10:31:14;;;;;;;7.72;4.53;;;;;;;20.64;61.65;99027.80;1724391;83;21043;-41
2022/05/30 10:34:38;;;;;;;6.00;4.60;;;;;;;20.97;61.76;99024.31;1726215;82;21110;-42
2022/05/30 10:37:45;;;;;;;7.45;4.55;;;;;;;21.19;59.71;99035.71;1727458;83;21086;-42
2022/05/30 10:40:39;;;;;;;8.25;4.97;;;;;;;21.40;60.34;99043.16;1748135;81;21050;-42
2022/05/30 10:43:11;;;;;;;6.42;4.28;;;;;;;21.55;59.72;99044.28;1753765;81;21022;-42
2022/05/30 10:46:02;;;;;;;7.67;4.33;;;;;;;21.58;57.32;99051.69;1754192;81;21003;-42
2022/05/30 10:48:37;;;;;;;7.65;4.67;;;;;;;21.52;58.17;99046.55;1751755;81;21022;-42
2022/05/30 10:51:16;;;;;;;7.55;4.30;;;;;;;21.37;57.59;99049.56;1753974;81;21132;-42
2022/05/30 10:54:07;;;;;;;5.28;3.85;;;;;;;21.22;58.30;99034.82;1753948;81;20963;-42
2022/05/30 10:56:45;;;;;;;7.55;4.33;;;;;;;21.05;58.02;99040.23;1728814;81;20966;-42
2022/05/30 10:59:26;;;;;;;8.10;4.35;;;;;;;20.83;59.54;99053.81;1753796;81;21283;-42
2022/05/30 11:02:16;;;;;;;7.40;4.47;;;;;;;20.62;58.87;99032.35;1753923;81;21464;-42
2022/05/30 11:05:00;;;;;;;6.85;4.58;;;;;;;20.43;59.88;99048.41;1753910;81;23213;-42
2022/05/30 11:07:52;;;;;;;6.08;4.30;;;;;;;20.29;60.44;99050.89;1753693;81;21037;-42
2022/05/30 11:11:10;;;;;;;6.33;4.08;;;;;;;20.24;61.15;99039.03;1753831;81;21022;-41
2022/05/30 11:14:18;;;;;;;9.88;3.98;;;;;;;20.19;61.03;99052.53;1753680;81;21089;-41
2022/05/30 11:17:14;;;;;;;6.17;4.00;;;;;;;20.12;61.15;99035.61;1720757;81;21085;-42
2022/05/30 11:20:12;;;;;;;7.33;4.62;;;;;;;20.09;60.82;99037.83;1748035;81;21981;-42
2022/05/30 11:22:44;;;;;;;5.95;3.90;;;;;;;20.07;61.27;99042.23;1750892;81;21441;-41
2022/05/30 11:25:15;;;;;;;8.45;4.00;;;;;;;20.08;61.65;99037.69;1751132;82;21127;-42
2022/05/30 11:28:21;;;;;;;6.08;4.00;;;;;;;20.09;60.12;99033.70;1749933;81;21629;-42
2022/05/30 11:31:12;;;;;;;8.45;4.22;;;;;;;20.11;61.02;99033.28;1750773;82;21582;-41
2022/05/30 11:34:02;;;;;;;5.45;4.03;;;;;;;20.19;61.38;99034.04;1751042;82;21147;-42
2022/05/30 11:36:46;;;;;;;6.55;3.72;;;;;;;20.33;60.57;99037.84;1714914;83;21609;-42
2022/05/30 11:39:39;;;;;;;7.00;4.20;;;;;;;20.45;59.23;99016.31;1748588;82;21551;-42
2022/05/30 11:42:29;;;;;;;6.17;4.00;;;;;;;20.53;58.07;99027.30;1707233;83;20953;-42
2022/05/30 11:44:59;;;;;;;5.67;4.08;;;;;;;20.45;57.25;99019.06;1743201;82;21037;-42
2022/05/30 11:47:55;;;;;;;7.72;4.40;;;;;;;20.31;58.50;99030.63;1707462;84;21216;-41
2022/05/30 11:50:51;;;;;;;6.60;4.37;;;;;;;20.19;58.84;99028.53;1742791;82;20998;-41
2022/05/30 11:53:45;;;;;;;6.25;4.37;;;;;;;20.10;59.46;99023.47;1734031;81;21073;-41
2022/05/30 11:56:26;;;;;;;7.25;4.60;;;;;;;20.02;59.61;99018.76;1707056;84;20969;-42
2022/05/30 11:59:37;;;;;;;7.35;4.37;;;;;;;19.96;59.95;99024.60;1715569;81;21005;-42
2022/05/30 12:02:10;;;;;;;6.05;4.20;;;;;;;19.94;60.22;99020.15;1707092;83;21137;-42
2022/05/30 12:04:57;;;;;;;7.67;4.45;;;;;;;19.82;59.38;99022.20;1742987;82;22124;-42
2022/05/30 12:08:01;;;;;;;9.23;4.83;;;;;;;19.76;59.30;99023.91;1706979;83;20976;-42
2022/05/30 12:11:03;;;;;;;9.53;4.67;;;;;;;19.67;59.89;99031.98;1742890;81;21065;-41
2022/05/30 12:13:48;;;;;;;11.90;4.58;;;;;;;19.61;59.98;99028.18;1707220;83;21791;-42
2022/05/30 12:17:01;;;;;;;5.55;3.87;;;;;;;19.60;60.76;99026.06;1707007;84;21291;-42
2022/05/30 12:25:50;;;;;;;8.10;4.90;;;;;;;19.64;62.18;99025.97;1742941;81;20942;-41
2022/05/30 12:28:34;;;;;;;5.42;4.30;;;;;;;19.68;62.47;99020.56;1707327;84;21012;-42
2022/05/30 12:31:06;;;;;;;7.33;4.97;;;;;;;19.70;62.19;99012.66;1742834;81;21119;-41
2022/05/30 12:33:45;;;;;;;8.95;4.75;;;;;;;19.77;62.33;99013.86;1743266;82;20965;-42
2022/05/30 12:36:20;;;;;;;8.60;5.30;;;;;;;19.80;62.60;99015.73;1742884;82;20961;-42
2022/05/30 12:38:52;;;;;;;6.22;4.70;;;;;;;19.79;62.30;99011.46;1743058;81;21096;-42